Leicester, NC (28748)

10:19 PM EST on December 20, 2014 (GMT -0500)
Hayes Cove | Change Station
CLOSE
Current Station
Personal Weather Station
Location: Leicester, NC
Elevation: 2475 ft
Nearby Weather Stations

Elev 2475 ft 35.61 °N, 82.72 °W | Updated 13 minutes ago

Overcast
Overcast
39.4 °F
Feels Like 39 °F
N
1.0
Wind Variable Wind from NNW
Gusts 1.0 mph

Today
High -- | Low -- °F
--% Chance of Precip.
Yesterday
High -- | Low -- °F
Precip. -- in
7:36 AM 5:20 PM
Waning Crescent, 1% visible
Pressure 30.21 in
Visibility 7.0 miles
Clouds Overcast 800 ft
Windchill 39 °F
Dew Point 36 °F
Humidity 87%
Rainfall 0.02 in
Snow Depth Not available.
UV 0 out of 12
Pollen .70 out of 12
Air Quality Not available.
Flu Activity Not available.
METAR KAVL 210254Z 16004KT 7SM OVC008 04/03 A3020 RMK AO2 SLP229 T00440028 50005

More Conditions Fewer Conditions

Pressure 30.21 in
Visibility 7.0 miles
Clouds Overcast 800 ft
Windchill 39 °F
Dew Point 36 °F
Humidity 87%
Rainfall 0.02 in
Snow Depth Not available.
UV 0 out of 12
Pollen .70 out of 12
Air Quality Not available.
Flu Activity Not available.
METAR KAVL 210254Z 16004KT 7SM OVC008 04/03 A3020 RMK AO2 SLP229 T00440028 50005

More Conditions Fewer Conditions

10-Day Weather Forecast

Almanac

Astronomy

Dec. 20, 2014 Rise Set
Actual Time
Civil Twilight
Nautical Twilight
Astronomical Twilight
Moon
Length of Visible Light
Length of Day
Tomorrow will be .
, % of the Moon is Illuminated

Today's Extremes

State Highs State Lows

Community

WunderPhotos

Upload Photos

1,779,349 photos uploaded!

WunderBlogs® & News

Nearby

Air Quality

  Air Quality AQ Index Pollutant
Not available.

Snow Depth

Station Depth Elevation

Earthquake Activity

City Distance Mag. Time & Date
Minimum magnitude displayed is 2.5.

Coastal Water Temperatures

Place Temperature

Nearby Weather Stations